createdAt,value
2018-03-07T00:00:01.602Z,6.40
2018-03-07T00:02:29.078Z,6.30
2018-03-07T00:04:56.579Z,6.20
2018-03-07T00:07:24.053Z,6.00
2018-03-07T00:09:51.542Z,5.90
2018-03-07T00:12:19.805Z,5.90
2018-03-07T00:14:47.320Z,5.80
2018-03-07T00:17:14.768Z,5.80
2018-03-07T00:19:43.032Z,6.10
2018-03-07T00:22:10.552Z,6.00
2018-03-07T00:24:38.009Z,6.00
2018-03-07T00:27:05.500Z,5.80
2018-03-07T00:29:32.972Z,5.80
2018-03-07T00:32:01.218Z,5.80
2018-03-07T00:34:28.689Z,5.80
2018-03-07T00:36:56.176Z,5.70
2018-03-07T00:39:24.410Z,5.70
2018-03-07T00:41:51.937Z,5.60
2018-03-07T00:44:19.461Z,5.80
2018-03-07T00:46:47.700Z,5.90
2018-03-07T00:49:15.181Z,5.80
2018-03-07T00:51:42.661Z,6.00
2018-03-07T00:54:10.928Z,5.90
2018-03-07T00:56:39.193Z,5.90
2018-03-07T00:59:06.664Z,5.80
2018-03-07T01:01:34.965Z,5.90
2018-03-07T01:04:02.456Z,5.80
2018-03-07T01:06:29.945Z,6.00
2018-03-07T01:08:57.420Z,5.70
2018-03-07T01:11:25.713Z,5.80
2018-03-07T01:13:53.952Z,5.90
2018-03-07T01:16:22.197Z,6.00
2018-03-07T01:18:49.693Z,6.00
2018-03-07T01:21:17.169Z,6.10
2018-03-07T01:23:45.409Z,6.00
2018-03-07T01:26:12.915Z,6.00
2018-03-07T01:28:41.149Z,6.10
2018-03-07T01:31:08.615Z,6.10
2018-03-07T01:33:36.128Z,6.10
2018-03-07T01:36:03.596Z,6.10
2018-03-07T01:38:31.073Z,6.20
2018-03-07T01:40:58.555Z,6.20
2018-03-07T01:43:26.029Z,6.20
2018-03-07T01:45:53.545Z,6.20
2018-03-07T01:48:21.047Z,6.30
2018-03-07T01:50:48.516Z,6.40
2018-03-07T01:53:16.775Z,6.50
2018-03-07T01:55:44.248Z,6.50
2018-03-07T01:58:12.504Z,6.50
2018-03-07T02:00:39.968Z,6.50
2018-03-07T02:03:07.436Z,6.70
2018-03-07T02:05:35.697Z,6.80
2018-03-07T02:08:03.206Z,6.70
2018-03-07T02:10:31.418Z,6.80
2018-03-07T02:12:58.908Z,6.80
2018-03-07T02:15:26.376Z,6.90
2018-03-07T02:17:54.669Z,6.90
2018-03-07T02:20:22.112Z,6.90
2018-03-07T02:22:50.350Z,7.20
2018-03-07T02:25:17.817Z,7.10
2018-03-07T02:27:45.292Z,7.10
2018-03-07T02:30:12.761Z,7.00
2018-03-07T02:32:41.038Z,7.00
2018-03-07T02:35:08.500Z,7.00
2018-03-07T02:37:36.728Z,7.00
2018-03-07T02:40:04.200Z,7.00
2018-03-07T02:42:31.666Z,7.00
2018-03-07T02:44:59.159Z,7.00
2018-03-07T02:47:27.397Z,7.00
2018-03-07T02:49:54.876Z,6.90
2018-03-07T02:52:23.126Z,6.70
2018-03-07T02:54:50.592Z,6.70
2018-03-07T02:57:18.079Z,6.70
2018-03-07T02:59:46.315Z,6.80
2018-03-07T03:02:13.848Z,6.80
2018-03-07T03:04:41.344Z,6.90
2018-03-07T03:07:08.808Z,6.90
2018-03-07T03:09:37.045Z,6.90
2018-03-07T03:12:04.536Z,6.90
2018-03-07T03:14:32.021Z,6.80
2018-03-07T03:17:00.256Z,6.80
2018-03-07T03:19:27.788Z,6.80
2018-03-07T03:21:55.260Z,6.80
2018-03-07T03:24:22.725Z,6.80
2018-03-07T03:26:50.216Z,6.80
2018-03-07T03:29:17.681Z,6.90
2018-03-07T03:31:45.149Z,6.90
2018-03-07T03:34:13.409Z,6.80
2018-03-07T03:36:40.876Z,6.70
2018-03-07T03:39:08.341Z,6.70
2018-03-07T03:41:35.841Z,6.80
2018-03-07T03:44:03.309Z,6.80
2018-03-07T03:46:30.783Z,6.70
2018-03-07T03:48:58.268Z,6.50
2018-03-07T03:51:25.736Z,6.60
2018-03-07T03:53:54.005Z,6.80
2018-03-07T03:56:21.521Z,6.70
2018-03-07T03:58:48.980Z,6.80
2018-03-07T04:01:16.493Z,6.90
2018-03-07T04:03:44.763Z,6.90
2018-03-07T04:06:12.228Z,6.80
2018-03-07T04:08:40.468Z,6.80
2018-03-07T04:11:07.955Z,6.70
2018-03-07T04:13:35.426Z,6.80
2018-03-07T04:16:03.659Z,6.80
2018-03-07T04:18:31.149Z,6.70
2018-03-07T04:20:58.611Z,6.80
2018-03-07T04:23:26.080Z,6.90
2018-03-07T04:25:54.349Z,7.00
2018-03-07T04:28:21.818Z,7.00
2018-03-07T04:30:50.053Z,7.00
2018-03-07T04:33:17.545Z,6.90
2018-03-07T04:35:45.784Z,6.90
2018-03-07T04:38:13.248Z,6.80
2018-03-07T04:40:40.791Z,6.90
2018-03-07T04:43:08.236Z,6.60
2018-03-07T04:45:35.701Z,6.60
2018-03-07T04:48:03.181Z,6.50
2018-03-07T04:50:30.676Z,6.40
2018-03-07T04:52:58.936Z,6.70
2018-03-07T04:55:26.404Z,6.60
2018-03-07T04:57:53.888Z,6.80
2018-03-07T05:00:22.141Z,6.60
2018-03-07T05:02:49.621Z,6.60
2018-03-07T05:05:17.098Z,7.90
2018-03-07T05:07:44.592Z,9.50
2018-03-07T05:10:12.060Z,10.40
2018-03-07T05:12:39.528Z,9.70
2018-03-07T05:15:07.013Z,8.50
2018-03-07T05:17:35.252Z,7.70
2018-03-07T05:20:02.728Z,7.70
2018-03-07T05:22:30.219Z,7.60
2018-03-07T05:24:57.752Z,7.80
2018-03-07T05:27:26.005Z,7.30
2018-03-07T05:29:53.486Z,7.30
2018-03-07T05:32:21.761Z,7.00
2018-03-07T05:34:49.254Z,7.00
2018-03-07T05:37:16.776Z,7.10
2018-03-07T05:39:44.244Z,6.90
2018-03-07T05:42:12.489Z,6.70
2018-03-07T05:44:39.953Z,6.70
2018-03-07T05:47:07.436Z,6.80
2018-03-07T05:49:35.696Z,7.60
2018-03-07T05:52:03.165Z,7.60
2018-03-07T05:54:30.636Z,7.40
2018-03-07T05:56:58.877Z,8.20
2018-03-07T05:59:26.348Z,8.20
2018-03-07T06:01:54.098Z,9.10
2018-03-07T06:04:21.570Z,8.40
2018-03-07T06:06:49.037Z,8.70
2018-03-07T06:09:16.509Z,8.00
2018-03-07T06:11:44.904Z,7.70
2018-03-07T06:14:12.384Z,7.60
2018-03-07T06:16:39.857Z,7.60
2018-03-07T06:19:07.337Z,7.70
2018-03-07T06:21:34.816Z,7.60
2018-03-07T06:24:02.314Z,7.70
2018-03-07T06:26:29.785Z,8.60
2018-03-07T06:28:57.253Z,8.40
2018-03-07T06:31:24.760Z,8.20
2018-03-07T06:33:52.988Z,7.90
2018-03-07T06:36:20.456Z,7.90
2018-03-07T06:38:47.949Z,8.00
2018-03-07T06:41:16.183Z,9.20
2018-03-07T06:43:43.732Z,9.10
2018-03-07T06:46:11.216Z,8.80
2018-03-07T06:48:38.681Z,8.50
2018-03-07T06:51:06.153Z,8.30
2018-03-07T06:53:33.637Z,8.20
2018-03-07T06:56:01.181Z,8.40
2018-03-07T06:58:29.421Z,9.70
2018-03-07T07:00:56.901Z,9.60
2018-03-07T07:03:24.371Z,8.70
2018-03-07T07:05:51.937Z,8.50
2018-03-07T07:08:20.174Z,9.00
2018-03-07T07:10:47.648Z,8.90
2018-03-07T07:13:15.230Z,8.60
2018-03-07T07:15:43.468Z,9.00
2018-03-07T07:18:10.964Z,8.90
2018-03-07T07:20:38.441Z,8.90
2018-03-07T07:23:06.683Z,11.00
2018-03-07T07:25:34.162Z,11.00
2018-03-07T07:28:02.400Z,10.20
2018-03-07T07:30:29.898Z,10.20
2018-03-07T07:32:58.137Z,8.70
2018-03-07T07:35:25.608Z,8.60
2018-03-07T07:37:53.092Z,8.40
2018-03-07T07:40:21.323Z,8.30
2018-03-07T07:42:48.821Z,8.30
2018-03-07T07:45:17.803Z,8.00
2018-03-07T07:47:46.785Z,8.30
2018-03-07T07:50:14.272Z,8.30
2018-03-07T07:52:42.516Z,8.20
2018-03-07T07:55:10.021Z,8.20
2018-03-07T07:57:38.307Z,8.70
2018-03-07T08:00:05.784Z,8.60
2018-03-07T08:02:33.293Z,8.20
2018-03-07T08:05:00.761Z,9.10
2018-03-07T08:07:29.001Z,11.00
2018-03-07T08:09:56.896Z,10.90
2018-03-07T08:12:25.431Z,9.90
2018-03-07T08:14:54.001Z,10.50
2018-03-07T08:17:22.413Z,10.40
2018-03-07T08:19:49.893Z,11.50
2018-03-07T08:22:17.371Z,10.20
2018-03-07T08:24:45.632Z,9.10
2018-03-07T08:27:13.104Z,9.10
2018-03-07T08:29:41.381Z,11.00
2018-03-07T08:32:08.878Z,11.00
2018-03-07T08:34:36.410Z,9.90
2018-03-07T08:37:04.644Z,9.00
2018-03-07T08:39:32.141Z,9.00
2018-03-07T08:42:00.413Z,8.90
2018-03-07T08:44:27.976Z,8.90
2018-03-07T08:46:56.253Z,9.00
2018-03-07T08:49:24.531Z,8.90
2018-03-07T08:51:52.764Z,8.80
2018-03-07T08:54:20.261Z,8.70
2018-03-07T08:56:47.729Z,8.70
2018-03-07T08:59:15.957Z,8.80
2018-03-07T09:01:43.441Z,8.80
2018-03-07T09:04:10.921Z,9.00
2018-03-07T09:06:39.173Z,8.80
2018-03-07T09:09:06.649Z,8.70
2018-03-07T09:11:34.117Z,9.00
2018-03-07T09:14:02.431Z,9.60
2018-03-07T09:16:29.913Z,9.60
2018-03-07T09:18:57.384Z,9.20
2018-03-07T09:21:24.868Z,9.70
2018-03-07T09:23:53.100Z,9.60
2018-03-07T09:26:20.568Z,9.50
2018-03-07T09:28:48.156Z,9.20
2018-03-07T09:31:15.626Z,9.40
2018-03-07T09:33:43.868Z,9.40
2018-03-07T09:36:11.385Z,9.30
2018-03-07T09:38:38.863Z,9.40
2018-03-07T09:41:06.336Z,9.90
2018-03-07T09:43:33.831Z,10.80
2018-03-07T09:46:01.304Z,11.00
2018-03-07T09:48:29.554Z,10.60
2018-03-07T09:50:57.040Z,10.50
2018-03-07T09:53:25.277Z,15.40
2018-03-07T09:55:52.749Z,15.30
2018-03-07T09:58:20.242Z,13.30
2018-03-07T10:00:48.507Z,12.50
2018-03-07T10:03:15.966Z,12.40
2018-03-07T10:08:26.185Z,11.80
2018-03-07T10:10:53.680Z,12.40
2018-03-07T10:13:21.157Z,14.50
2018-03-07T10:15:49.435Z,14.90
2018-03-07T10:18:17.682Z,15.90
2018-03-07T10:20:45.174Z,15.80
2018-03-07T10:23:13.445Z,16.50
2018-03-07T10:25:41.702Z,14.50
2018-03-07T10:28:09.180Z,14.40
2018-03-07T10:30:37.438Z,14.90
2018-03-07T10:33:10.586Z,14.80
2018-03-07T10:35:38.109Z,15.10
2018-03-07T10:38:06.385Z,16.80
2018-03-07T10:40:34.622Z,16.60
2018-03-07T10:43:02.119Z,16.50
2018-03-07T10:45:30.368Z,17.10
2018-03-07T10:47:57.860Z,17.00
2018-03-07T10:50:26.101Z,16.30
2018-03-07T10:52:53.573Z,16.20
2018-03-07T10:55:21.196Z,14.30
2018-03-07T10:57:48.670Z,15.10
2018-03-07T11:00:21.978Z,16.30
2018-03-07T11:02:49.454Z,16.10
2018-03-07T11:05:16.920Z,15.80
2018-03-07T11:07:44.415Z,15.80
2018-03-07T11:10:11.900Z,15.40
2018-03-07T11:12:39.398Z,14.40
2018-03-07T11:15:07.666Z,14.30
2018-03-07T11:17:35.233Z,14.30
2018-03-07T11:20:02.706Z,15.20
2018-03-07T11:22:30.957Z,15.60
2018-03-07T11:24:59.201Z,16.50
2018-03-07T11:27:26.720Z,16.50
2018-03-07T11:29:54.957Z,15.30
2018-03-07T11:32:22.429Z,15.30
2018-03-07T11:34:49.949Z,15.90
2018-03-07T11:37:17.425Z,15.20
2018-03-07T11:39:44.919Z,14.10
2018-03-07T11:42:13.186Z,14.90
2018-03-07T11:44:40.660Z,14.80
2018-03-07T11:47:08.933Z,14.00
2018-03-07T11:49:37.194Z,13.70
2018-03-07T11:52:06.173Z,13.10
2018-03-07T11:54:33.650Z,13.10
2018-03-07T11:57:01.152Z,13.70
2018-03-07T11:59:28.623Z,13.80
2018-03-07T12:01:56.097Z,14.50
2018-03-07T12:04:23.580Z,16.10
2018-03-07T12:06:51.053Z,14.70
2018-03-07T12:09:20.035Z,13.30
2018-03-07T12:11:47.532Z,13.30
2018-03-07T12:14:15.004Z,13.40
2018-03-07T12:16:42.489Z,13.90
2018-03-07T12:19:10.089Z,14.40
2018-03-07T12:21:38.333Z,14.20
2018-03-07T12:24:05.800Z,14.10
2018-03-07T12:26:33.293Z,13.30
2018-03-07T12:29:01.549Z,13.30
2018-03-07T12:31:29.020Z,13.30
2018-03-07T12:33:57.282Z,13.30
2018-03-07T12:36:25.551Z,13.30
2018-03-07T12:38:53.045Z,13.20
2018-03-07T12:41:21.309Z,13.10
2018-03-07T12:43:49.589Z,13.10
2018-03-07T12:46:17.837Z,13.00
2018-03-07T12:48:45.330Z,13.00
2018-03-07T12:51:13.565Z,13.00
2018-03-07T12:53:41.041Z,12.90
2018-03-07T12:56:10.037Z,12.90
2018-03-07T12:58:37.514Z,12.90
2018-03-07T13:01:05.839Z,13.10
2018-03-07T13:03:34.070Z,13.00
2018-03-07T13:06:02.313Z,13.10
2018-03-07T13:08:29.798Z,13.00
2018-03-07T13:10:58.076Z,13.10
2018-03-07T13:13:26.321Z,13.10
2018-03-07T13:15:53.821Z,13.00
2018-03-07T13:18:22.086Z,13.00
2018-03-07T13:20:49.555Z,13.00
2018-03-07T13:23:17.825Z,13.00
2018-03-07T13:25:46.079Z,13.10
2018-03-07T13:28:13.556Z,13.10
2018-03-07T13:30:41.127Z,13.10
2018-03-07T13:33:09.389Z,13.20
2018-03-07T13:35:36.869Z,13.10
2018-03-07T13:38:05.144Z,13.30
2018-03-07T13:40:33.376Z,13.40
2018-03-07T13:43:00.860Z,13.40
2018-03-07T13:45:28.344Z,13.50
2018-03-07T13:47:56.605Z,13.70
2018-03-07T13:50:24.852Z,13.80
2018-03-07T13:52:52.327Z,13.80
2018-03-07T13:55:19.805Z,13.90
2018-03-07T13:57:48.054Z,13.90
2018-03-07T14:00:15.529Z,13.80
2018-03-07T14:02:43.013Z,13.90
2018-03-07T14:05:11.285Z,13.90
2018-03-07T14:07:39.521Z,13.80
2018-03-07T14:10:06.999Z,13.80
2018-03-07T14:12:34.506Z,13.80
2018-03-07T14:15:01.986Z,13.80
2018-03-07T14:17:29.461Z,13.70
2018-03-07T14:19:56.944Z,13.70
2018-03-07T14:22:25.216Z,13.80
2018-03-07T14:24:52.685Z,13.70
2018-03-07T14:27:20.932Z,13.70
2018-03-07T14:29:48.413Z,13.60
2018-03-07T14:32:16.655Z,13.90
2018-03-07T14:34:44.145Z,13.80
2018-03-07T14:37:12.429Z,15.60
2018-03-07T14:39:40.709Z,16.80
2018-03-07T14:42:08.963Z,16.80
2018-03-07T14:44:36.438Z,16.80
2018-03-07T14:47:04.736Z,15.70
2018-03-07T14:49:33.011Z,15.60
2018-03-07T14:52:00.464Z,15.50
2018-03-07T14:54:28.728Z,16.50
2018-03-07T14:56:56.969Z,15.30
2018-03-07T14:59:24.441Z,15.30
2018-03-07T15:01:51.931Z,14.90
2018-03-07T15:04:20.169Z,14.50
2018-03-07T15:06:47.640Z,14.50
2018-03-07T15:09:15.132Z,14.70
2018-03-07T15:11:43.369Z,14.50
2018-03-07T15:14:12.356Z,14.40
2018-03-07T15:16:39.837Z,14.40
2018-03-07T15:19:07.316Z,14.40
2018-03-07T15:21:35.573Z,14.40
2018-03-07T15:24:03.041Z,14.30
2018-03-07T15:26:31.282Z,14.40
2018-03-07T15:28:58.757Z,14.40
2018-03-07T15:31:26.230Z,14.50
2018-03-07T15:33:54.497Z,14.50
2018-03-07T15:36:21.968Z,14.40
2018-03-07T15:38:49.435Z,14.40
2018-03-07T15:41:17.697Z,14.40
2018-03-07T15:43:45.168Z,14.30
2018-03-07T15:46:13.418Z,14.70
2018-03-07T15:48:40.916Z,14.60
2018-03-07T15:51:09.170Z,14.00
2018-03-07T15:53:36.732Z,13.90
2018-03-07T15:56:04.246Z,13.80
2018-03-07T15:58:31.726Z,13.50
2018-03-07T16:00:59.208Z,13.20
2018-03-07T16:03:26.709Z,13.10
2018-03-07T16:05:54.200Z,13.00
2018-03-07T16:08:21.685Z,13.20
2018-03-07T16:10:49.193Z,13.80
2018-03-07T16:13:16.672Z,14.00
2018-03-07T16:15:44.162Z,14.00
2018-03-07T16:18:11.701Z,14.30
2018-03-07T16:20:39.195Z,13.80
2018-03-07T16:23:07.443Z,14.70
2018-03-07T16:25:34.953Z,14.60
2018-03-07T16:28:02.438Z,14.50
2018-03-07T16:30:29.916Z,13.70
2018-03-07T16:32:57.412Z,12.70
2018-03-07T16:35:25.652Z,11.70
2018-03-07T16:37:53.132Z,11.70
2018-03-07T16:40:20.623Z,11.50
2018-03-07T16:42:48.109Z,11.30
2018-03-07T16:45:15.600Z,11.00
2018-03-07T16:47:43.072Z,10.80
2018-03-07T16:50:11.318Z,10.40
2018-03-07T16:52:38.836Z,10.40
2018-03-07T16:55:06.317Z,10.40
2018-03-07T16:57:33.792Z,10.40
2018-03-07T17:00:01.329Z,10.30
2018-03-07T17:02:28.807Z,10.20
2018-03-07T17:04:56.288Z,10.10
2018-03-07T17:07:23.788Z,10.10
2018-03-07T17:09:51.268Z,10.10
2018-03-07T17:12:18.744Z,10.00
2018-03-07T17:14:46.240Z,9.90
2018-03-07T17:17:14.485Z,9.80
2018-03-07T17:19:41.957Z,9.70
2018-03-07T17:22:09.441Z,9.90
2018-03-07T17:24:37.696Z,10.10
2018-03-07T17:27:05.194Z,10.00
2018-03-07T17:29:32.705Z,10.50
2018-03-07T17:32:00.188Z,10.30
2018-03-07T17:34:28.461Z,10.80
2018-03-07T17:36:56.020Z,10.70
2018-03-07T17:39:23.493Z,10.80
2018-03-07T17:41:51.756Z,10.20
2018-03-07T17:44:20.036Z,10.00
2018-03-07T17:46:48.301Z,10.00
2018-03-07T17:49:15.798Z,10.00
2018-03-07T17:51:43.332Z,10.00
2018-03-07T17:54:11.584Z,10.00
2018-03-07T17:56:39.076Z,9.90
2018-03-07T17:59:07.333Z,9.90
2018-03-07T18:01:34.808Z,9.80
2018-03-07T18:04:03.076Z,10.00
2018-03-07T18:06:30.643Z,9.90
2018-03-07T18:08:58.901Z,10.00
2018-03-07T18:11:26.400Z,9.90
2018-03-07T18:13:54.644Z,10.00
2018-03-07T18:16:22.224Z,9.90
2018-03-07T18:18:50.484Z,9.90
2018-03-07T18:21:17.960Z,9.80
2018-03-07T18:23:46.845Z,10.00
2018-03-07T18:26:15.258Z,10.00
2018-03-07T18:28:43.190Z,9.90
2018-03-07T18:31:12.433Z,10.90
2018-03-07T18:33:40.365Z,10.90
2018-03-07T18:36:08.613Z,11.90
2018-03-07T18:38:36.106Z,11.90
2018-03-07T18:41:04.345Z,11.30
2018-03-07T18:43:31.832Z,11.20
2018-03-07T18:46:00.113Z,9.80
2018-03-07T18:48:28.375Z,9.70
2018-03-07T18:50:55.865Z,9.60
2018-03-07T18:53:24.117Z,9.60
2018-03-07T18:55:51.597Z,9.50
2018-03-07T18:58:19.852Z,9.60
2018-03-07T19:00:47.320Z,9.50
2018-03-07T19:03:15.565Z,9.70
2018-03-07T19:05:43.062Z,9.60
2018-03-07T19:08:11.328Z,9.40
2018-03-07T19:10:39.716Z,9.40
2018-03-07T19:13:07.992Z,10.20
2018-03-07T19:15:36.242Z,10.50
2018-03-07T19:18:03.740Z,10.40
2018-03-07T19:20:31.985Z,10.10
2018-03-07T19:22:59.464Z,10.10
2018-03-07T19:25:27.712Z,9.50
2018-03-07T19:27:55.198Z,9.40
2018-03-07T19:30:23.472Z,9.80
2018-03-07T19:32:51.724Z,10.00
2018-03-07T19:35:19.204Z,9.90
2018-03-07T19:37:46.702Z,10.00
2018-03-07T19:40:14.228Z,9.90
2018-03-07T19:42:42.477Z,10.70
2018-03-07T19:45:09.985Z,10.60
2018-03-07T19:47:37.485Z,10.70
2018-03-07T19:50:04.972Z,10.50
2018-03-07T19:52:32.571Z,9.90
2018-03-07T19:55:00.048Z,9.60
2018-03-07T19:57:27.525Z,9.50
2018-03-07T19:59:55.022Z,9.50
2018-03-07T20:02:23.284Z,9.30
2018-03-07T20:04:50.760Z,9.30
2018-03-07T20:07:19.033Z,9.90
2018-03-07T20:09:46.515Z,9.80
2018-03-07T20:12:14.032Z,10.40
2018-03-07T20:14:41.500Z,10.10
2018-03-07T20:17:08.983Z,10.20
2018-03-07T20:19:37.276Z,10.60
2018-03-07T20:22:04.770Z,10.50
2018-03-07T20:24:32.264Z,10.90
2018-03-07T20:27:00.550Z,11.00
2018-03-07T20:29:28.808Z,11.10
2018-03-07T20:31:56.284Z,11.10
2018-03-07T20:34:24.590Z,10.60
2018-03-07T20:36:52.173Z,10.60
2018-03-07T20:39:19.653Z,10.50
2018-03-07T20:41:47.178Z,10.80
2018-03-07T20:44:14.665Z,10.90
2018-03-07T20:46:42.193Z,10.60
2018-03-07T20:49:09.753Z,10.60
2018-03-07T20:51:37.239Z,10.40
2018-03-07T20:54:04.820Z,10.30
2018-03-07T20:56:32.304Z,10.40
2018-03-07T20:59:00.558Z,10.50
2018-03-07T21:01:28.858Z,10.40
2018-03-07T21:03:57.108Z,10.70
2018-03-07T21:06:24.597Z,10.70
2018-03-07T21:08:52.861Z,10.60
2018-03-07T21:11:21.108Z,10.30
2018-03-07T21:13:48.593Z,10.20
2018-03-07T21:16:16.107Z,10.30
2018-03-07T21:18:43.606Z,10.40
2018-03-07T21:21:11.176Z,10.40
2018-03-07T21:23:38.739Z,10.50
2018-03-07T21:26:06.983Z,10.00
2018-03-07T21:28:34.464Z,10.00
2018-03-07T21:31:01.985Z,10.00
2018-03-07T21:33:29.476Z,10.60
2018-03-07T21:35:58.482Z,10.20
2018-03-07T21:38:25.983Z,10.20
2018-03-07T21:40:53.456Z,9.90
2018-03-07T21:43:20.944Z,9.90
2018-03-07T21:45:48.440Z,10.00
2018-03-07T21:48:16.690Z,10.00
2018-03-07T21:50:44.199Z,9.90
2018-03-07T21:53:11.720Z,9.90
2018-03-07T21:55:40.008Z,9.90
2018-03-07T21:58:08.252Z,9.90
2018-03-07T22:00:35.872Z,9.90
2018-03-07T22:03:03.352Z,9.70
2018-03-07T22:05:30.832Z,9.60
2018-03-07T22:07:58.324Z,9.70
2018-03-07T22:10:26.561Z,9.60
2018-03-07T22:12:54.037Z,9.50
2018-03-07T22:15:21.543Z,9.50
2018-03-07T22:17:49.025Z,9.50
2018-03-07T22:20:16.505Z,9.50
2018-03-07T22:22:44.003Z,9.40
2018-03-07T22:25:11.536Z,9.30
2018-03-07T22:27:39.819Z,9.20
2018-03-07T22:30:08.091Z,9.10
2018-03-07T22:32:35.560Z,9.00
2018-03-07T22:35:03.795Z,9.10
2018-03-07T22:37:31.296Z,9.00
2018-03-07T22:39:59.552Z,9.20
2018-03-07T22:42:28.528Z,9.30
2018-03-07T22:44:56.126Z,9.30
2018-03-07T22:47:24.368Z,9.30
2018-03-07T22:49:51.868Z,9.30
2018-03-07T22:52:20.114Z,9.40
2018-03-07T22:54:47.587Z,9.40
2018-03-07T22:57:15.090Z,9.40
2018-03-07T22:59:42.568Z,9.30
2018-03-07T23:02:10.044Z,9.30
2018-03-07T23:04:37.546Z,9.30
2018-03-07T23:07:05.788Z,9.30
2018-03-07T23:09:33.272Z,9.20
2018-03-07T23:12:01.540Z,9.10
2018-03-07T23:14:29.037Z,9.00
2018-03-07T23:16:56.556Z,8.90
2018-03-07T23:19:24.045Z,8.80
2018-03-07T23:21:51.518Z,8.70
2018-03-07T23:24:18.996Z,8.70
2018-03-07T23:26:46.494Z,8.70
2018-03-07T23:29:14.749Z,8.40
2018-03-07T23:31:42.234Z,8.40
2018-03-07T23:34:10.493Z,8.30
2018-03-07T23:36:37.964Z,8.20
2018-03-07T23:39:06.224Z,8.00
2018-03-07T23:41:33.712Z,7.90
2018-03-07T23:44:01.954Z,7.80
2018-03-07T23:46:29.447Z,7.70
2018-03-07T23:48:57.712Z,7.70
2018-03-07T23:51:25.185Z,7.60
2018-03-07T23:53:53.426Z,7.60
2018-03-07T23:56:20.921Z,7.50
2018-03-07T23:58:49.180Z,7.60
